Meteo Giornale » Osservazioni meteo Stati Uniti (USA) » Ontario
ore: 10:53 - Osservazioni Meteo Ontario
Lat. 44° 1' N Lon. 117° 0' W Alt. 667 metri s.l.m.
0 °C
Molto Nuvoloso
Temp. 24 Ore
0 °C
30 °C
Nord
0 Km/h
Dew point 0 °C
Umidità 50 %
Visibilità 12 Km
Il sole sorge alle ore 07:11
Il sole tramonta alle ore 20:24
| Data e Ora | Cielo e Fenomeni | T °C | DP °C | Um. % | Pres. hPa | Vis. km | Vento km/h | |
|---|---|---|---|---|---|---|---|---|
| Oggi h: 10:53 | Molto Nuvoloso | 0 | 0 | 50 | 1011 | 12 | N 0 | |
| Oggi h: 09:53 | Nuvoloso | 17 | 8 | 55 | 1010 | 10 | NE 9.3 | |
| Oggi h: 08:53 | Sereno | 15 | 8 | 62 | 1010 | 10 | N 0 | |
| Oggi h: 07:53 | Sereno | 13 | 7 | 66 | 1009 | 10 | N 5.5 | |
| Oggi h: 06:53 | Sereno | 11 | 5 | 66 | 1009 | 10 | N 0 | |
| Oggi h: 05:53 | Sereno | 11 | 4 | 61 | 1009 | 10 | N 5.5 | |
| Oggi h: 04:53 | Sereno | 12 | 4 | 57 | 1008 | 10 | O/SO 9.3 | |
| Oggi h: 03:53 | Sereno | 11 | 6 | 71 | 1008 | 10 | N 0 | |
| Oggi h: 02:53 | Sereno | 12 | 6 | 66 | 1008 | 10 | N/NO 7.4 | |
| Oggi h: 01:53 | Sereno | 13 | 4 | 54 | 1008 | 10 | N 0 | |
| Oggi h: 00:53 | Sereno | 14 | 6 | 58 | 1008 | 10 | N 0 | |
| Ieri h: 23:53 | Sereno | 16 | 6 | 51 | 1008 | 10 | N 5.5 | |
| Ieri h: 22:53 | Sereno | 17 | 6 | 48 | 1008 | 10 | N 5.5 | |
| Ieri h: 21:53 | Sereno | 18 | 8 | 51 | 1009 | 10 | O/SO 7.4 | |
| Ieri h: 20:53 | Sereno | 19 | 9 | 52 | 1008 | 10 | N 0 | |
| Ieri h: 19:53 | Sereno | 28 | 3 | 20 | 1009 | 10 | N 5.5 | |
| Ieri h: 18:53 | Sereno | 29 | -1 | 14 | 1009 | 10 | N 9.3 | |
| Ieri h: 17:53 | Sereno | 30 | -1 | 13 | 1010 | 10 | N 5.5 | |
| Ieri h: 16:53 | Sereno | 29 | 2 | 17 | 1011 | 10 | N 5.5 | |
| Ieri h: 15:53 | Sereno | 28 | 2 | 18 | 1012 | 10 | N 0 | |
| Ieri h: 14:53 | Sereno | 27 | 3 | 21 | 1014 | 10 | N 5.5 | |
| Ieri h: 13:53 | Sereno | 24 | 2 | 23 | 1015 | 10 | N 5.5 | |
| Ieri h: 12:53 | Sereno | 23 | 2 | 25 | 1016 | 10 | N 5.5 | |
| Ieri h: 11:53 | Sereno | 20 | 2 | 30 | 1017 | 10 | N 0 | |



